Time;durP1;ratioP1;P1;durP2;ratioP2;P2;SDS_P1;SDS_P2;PMS_P1;PMS_P2;Temp;Humidity;BMP_temperature;BMP_pressure;BME280_temperature;BME280_humidity;BME280_pressure;Samples;Min_cycle;Max_cycle;Signal;HPM_P1;HPM_P2
2022/06/18 00:02:00;;;;;;;7.97;4.40;;;;;;;21.20;45.94;96615.53;10346831;28;97398;-71
2022/06/18 00:07:09;;;;;;;7.30;4.30;;;;;;;20.95;46.59;96610.84;10345883;28;99054;-71
2022/06/18 00:17:37;;;;;;;5.88;3.08;;;;;;;20.19;48.18;96599.44;10351828;28;96796;-70
2022/06/18 00:22:42;;;;;;;3.83;3.33;;;;;;;20.04;47.69;96600.63;10355098;28;96756;-71
2022/06/18 00:27:47;;;;;;;3.75;2.88;;;;;;;20.13;47.72;96610.03;10354048;28;96959;-71
2022/06/18 00:32:50;;;;;;;3.35;2.85;;;;;;;20.19;47.47;96617.19;10364966;28;98417;-70
2022/06/18 00:37:56;;;;;;;5.28;3.20;;;;;;;20.18;47.05;96602.28;10356167;28;97028;-70
2022/06/18 00:43:05;;;;;;;3.65;2.88;;;;;;;20.04;48.29;96593.47;10354881;28;97883;-70
2022/06/18 00:48:15;;;;;;;3.70;2.47;;;;;;;19.88;48.79;96597.28;10355196;28;97031;-70
2022/06/18 00:53:22;;;;;;;2.53;2.33;;;;;;;19.89;47.17;96588.34;10366152;28;97391;-70
2022/06/18 00:58:32;;;;;;;2.75;2.50;;;;;;;19.92;47.65;96573.84;10368604;28;97316;-70
2022/06/18 01:03:38;;;;;;;5.38;2.80;;;;;;;19.66;48.39;96575.34;10370509;28;96870;-70
2022/06/18 01:08:41;;;;;;;3.55;2.83;;;;;;;19.46;48.68;96563.84;10368242;28;96795;-70
2022/06/18 01:13:45;;;;;;;6.65;2.90;;;;;;;19.43;48.64;96559.72;10358352;28;98256;-71
2022/06/18 01:18:50;;;;;;;4.43;2.90;;;;;;;19.57;48.78;96548.19;10367896;28;96996;-70
2022/06/18 01:23:57;;;;;;;5.25;2.50;;;;;;;19.54;49.80;96545.09;10355084;28;97009;-70
2022/06/18 01:29:01;;;;;;;6.47;2.60;;;;;;;19.29;49.98;96536.84;10346417;28;98501;-70
2022/06/18 01:34:05;;;;;;;4.25;2.80;;;;;;;19.19;49.67;96527.44;10349642;28;97185;-70
2022/06/18 01:39:14;;;;;;;3.00;2.60;;;;;;;19.23;49.52;96530.50;10343303;28;100651;-70
2022/06/18 01:44:32;;;;;;;3.03;2.50;;;;;;;19.10;49.60;96533.06;10364812;28;96791;-70
2022/06/18 01:49:38;;;;;;;3.55;2.30;;;;;;;18.98;49.53;96530.13;10335521;28;96805;-70
2022/06/18 01:54:45;;;;;;;3.03;2.30;;;;;;;18.77;50.28;96529.13;10336009;28;97795;-70
2022/06/18 01:59:53;;;;;;;3.17;2.28;;;;;;;18.74;49.13;96529.53;10348170;28;97157;-70
2022/06/18 02:04:56;;;;;;;3.80;2.42;;;;;;;18.72;48.93;96522.78;10344180;28;98963;-70
2022/06/18 02:10:03;;;;;;;5.07;2.47;;;;;;;18.68;49.71;96522.34;10343737;28;97178;-70
2022/06/18 02:15:12;;;;;;;3.25;2.50;;;;;;;18.55;49.91;96524.88;10359790;28;97040;-70
2022/06/18 02:20:20;;;;;;;3.25;2.50;;;;;;;18.44;50.42;96519.09;10343287;28;96812;-70
2022/06/18 02:25:25;;;;;;;3.60;2.58;;;;;;;18.37;50.45;96526.16;10338782;28;99636;-70
2022/06/18 02:30:35;;;;;;;4.78;2.70;;;;;;;18.15;51.40;96517.44;10355839;28;98434;-69
2022/06/18 02:35:39;;;;;;;4.72;3.03;;;;;;;18.11;51.39;96522.25;10344268;28;97230;-70
2022/06/18 02:40:42;;;;;;;3.35;2.40;;;;;;;18.10;51.80;96525.91;10345970;28;101666;-70
2022/06/18 02:45:52;;;;;;;5.07;2.50;;;;;;;17.90;52.37;96522.25;10344910;28;98451;-71
2022/06/18 02:50:57;;;;;;;4.93;2.78;;;;;;;17.67;52.86;96523.16;10355427;28;96890;-70
2022/06/18 02:56:03;;;;;;;3.58;2.42;;;;;;;17.67;53.09;96515.25;10347294;28;97364;-70
2022/06/18 03:01:11;;;;;;;4.30;2.53;;;;;;;17.71;53.37;96519.16;10339166;28;97595;-70
2022/06/18 03:06:15;;;;;;;3.33;2.53;;;;;;;17.77;53.31;96517.59;10345119;28;96851;-70
2022/06/18 03:16:42;;;;;;;3.00;2.65;;;;;;;17.65;53.37;96527.03;10349135;28;96872;-70
2022/06/18 03:21:49;;;;;;;3.63;2.67;;;;;;;17.62;53.46;96519.47;10339138;28;98737;-70
2022/06/18 03:26:52;;;;;;;4.05;2.47;;;;;;;17.56;54.31;96521.00;10356673;28;98330;-70
2022/06/18 03:31:56;;;;;;;3.55;2.80;;;;;;;17.56;54.61;96516.53;10349178;28;96802;-69
2022/06/18 03:37:00;;;;;;;4.60;2.40;;;;;;;17.47;54.92;96522.09;10341114;28;97419;-70
2022/06/18 03:42:03;;;;;;;5.07;2.78;;;;;;;17.42;55.21;96529.75;10342811;28;97000;-70
2022/06/18 03:47:08;;;;;;;2.90;2.63;;;;;;;17.38;55.02;96527.47;10346963;28;96934;-70
2022/06/18 03:52:12;;;;;;;5.13;2.47;;;;;;;17.38;55.16;96540.69;10352678;28;97030;-70
2022/06/18 03:57:17;;;;;;;5.22;2.50;;;;;;;17.24;55.25;96536.22;10349514;28;97216;-70
2022/06/18 04:02:22;;;;;;;3.47;2.35;;;;;;;17.07;55.88;96551.41;10347898;28;97193;-70
2022/06/18 04:07:26;;;;;;;3.17;2.17;;;;;;;16.76;56.28;96546.28;10347783;28;97048;-70
2022/06/18 04:12:29;;;;;;;3.85;2.70;;;;;;;16.76;55.34;96539.22;10348576;28;98013;-70
2022/06/18 04:17:34;;;;;;;5.18;3.40;;;;;;;16.81;53.91;96530.72;10346520;28;96963;-70
2022/06/18 04:22:36;;;;;;;7.00;3.78;;;;;;;16.93;52.63;96531.13;10348048;28;96843;-70
2022/06/18 04:27:39;;;;;;;3.85;2.60;;;;;;;17.15;53.58;96529.41;10347527;28;96784;-69
2022/06/18 04:32:48;;;;;;;3.78;2.78;;;;;;;17.30;53.82;96527.59;10344456;28;96890;-70
2022/06/18 04:37:51;;;;;;;6.35;3.53;;;;;;;17.14;54.17;96522.47;10348444;28;96933;-70
2022/06/18 04:42:54;;;;;;;4.32;2.70;;;;;;;17.07;53.45;96521.56;10343070;28;99966;-70
2022/06/18 04:47:59;;;;;;;5.13;3.13;;;;;;;16.98;53.49;96519.00;10346937;28;96786;-70
2022/06/18 04:53:02;;;;;;;5.03;2.78;;;;;;;17.00;54.21;96511.75;10340363;28;96800;-70
2022/06/18 04:58:06;;;;;;;3.25;2.35;;;;;;;17.22;53.82;96509.19;10358106;28;97398;-69
2022/06/18 05:03:16;;;;;;;4.18;2.50;;;;;;;17.53;53.49;96501.06;10350160;28;96927;-70
2022/06/18 05:08:19;;;;;;;5.00;2.78;;;;;;;17.73;53.12;96509.22;10359768;28;97026;-70
2022/06/18 05:13:22;;;;;;;3.80;2.92;;;;;;;17.91;52.96;96510.69;10341886;28;96740;-70
2022/06/18 05:18:31;;;;;;;4.57;2.83;;;;;;;18.10;53.61;96496.84;10349204;28;97450;-70
2022/06/18 05:23:34;;;;;;;3.75;2.85;;;;;;;18.27;53.46;96488.63;10357927;28;96833;-70
2022/06/18 05:28:37;;;;;;;4.78;2.47;;;;;;;18.46;53.44;96474.78;10343757;28;96819;-70
2022/06/18 05:33:41;;;;;;;3.70;2.45;;;;;;;18.58;53.61;96464.47;10353068;28;96718;-70
2022/06/18 05:38:44;;;;;;;3.42;2.33;;;;;;;18.69;52.56;96477.19;10347342;28;96903;-70
2022/06/18 05:43:47;;;;;;;4.07;2.15;;;;;;;18.84;52.37;96479.69;10349371;28;96860;-70
2022/06/18 05:48:53;;;;;;;4.53;2.65;;;;;;;19.01;52.77;96479.44;10346084;28;98420;-70
2022/06/18 05:53:56;;;;;;;4.32;2.53;;;;;;;19.30;52.98;96496.06;10350696;28;98018;-70
2022/06/18 05:58:59;;;;;;;3.90;2.92;;;;;;;19.50;53.21;96497.00;10343429;28;96830;-70
2022/06/18 06:04:03;;;;;;;2.35;1.92;;;;;;;19.60;51.92;96497.44;10345400;28;96851;-70
2022/06/18 06:09:07;;;;;;;3.58;2.30;;;;;;;19.85;51.94;96491.63;10346199;28;96981;-69
2022/06/18 06:14:09;;;;;;;3.53;2.35;;;;;;;20.13;51.41;96495.97;10344438;28;96954;-70
2022/06/18 06:19:14;;;;;;;4.90;2.25;;;;;;;20.40;49.86;96496.84;10347305;28;96947;-70
2022/06/18 06:24:16;;;;;;;5.18;2.20;;;;;;;20.67;49.22;96495.00;10358842;28;96899;-70
2022/06/18 06:29:23;;;;;;;3.95;2.20;;;;;;;20.81;49.30;96497.66;10373419;28;99197;-70
2022/06/18 06:34:28;;;;;;;3.40;2.80;;;;;;;20.99;48.51;96489.88;10340619;28;97789;-69
2022/06/18 06:39:31;;;;;;;4.70;2.55;;;;;;;21.20;49.27;96496.78;10346334;28;97259;-70
2022/06/18 06:44:34;;;;;;;4.45;2.70;;;;;;;21.46;47.87;96501.19;10364086;28;96914;-70
2022/06/18 06:49:39;;;;;;;5.87;3.50;;;;;;;21.67;47.80;96494.78;10343857;28;96883;-70
2022/06/18 06:54:42;;;;;;;3.45;2.55;;;;;;;21.82;47.71;96497.19;10340085;28;97091;-70
2022/06/18 06:59:45;;;;;;;5.93;2.92;;;;;;;22.00;47.32;96503.66;10361116;28;98764;-70
2022/06/18 07:04:49;;;;;;;3.75;2.72;;;;;;;22.18;46.97;96500.25;10341400;28;98173;-70
2022/06/18 07:09:52;;;;;;;;;;;;;;;22.37;46.85;96501.16;10349234;28;96985;-70
2022/06/18 07:14:55;;;;;;;3.70;2.72;;;;;;;22.55;46.47;96501.25;10353363;28;96839;-70
2022/06/18 07:20:00;;;;;;;3.20;2.50;;;;;;;22.70;46.15;96500.09;10342067;28;99362;-70
2022/06/18 07:25:10;;;;;;;3.47;2.63;;;;;;;22.79;45.87;96504.16;10350981;28;98600;-70
2022/06/18 07:30:14;;;;;;;4.65;3.10;;;;;;;22.87;45.52;96498.50;10366587;28;99007;-70
2022/06/18 07:35:21;;;;;;;3.47;2.83;;;;;;;23.04;45.29;96500.63;10355174;28;96857;-70
2022/06/18 07:40:25;;;;;;;4.88;2.90;;;;;;;23.18;45.15;96502.91;10366806;28;97347;-70
2022/06/18 07:45:28;;;;;;;4.28;3.00;;;;;;;23.33;45.17;96499.94;10366343;28;98363;-70
2022/06/18 07:50:32;;;;;;;3.17;2.70;;;;;;;23.49;44.93;96492.38;10354270;28;98348;-69
2022/06/18 07:55:35;;;;;;;4.28;2.75;;;;;;;23.63;44.56;96485.84;10353022;28;96783;-70
2022/06/18 08:00:40;;;;;;;5.30;2.97;;;;;;;23.72;44.57;96470.34;10365532;28;97154;-70
2022/06/18 08:05:45;;;;;;;5.22;3.00;;;;;;;23.87;44.12;96478.75;10356626;28;101784;-70
2022/06/18 08:10:51;;;;;;;5.25;3.10;;;;;;;23.93;43.72;96485.03;10351614;28;98704;-70
2022/06/18 08:15:54;;;;;;;3.55;2.90;;;;;;;24.00;43.55;96477.78;10343981;28;98655;-70
2022/06/18 08:21:02;;;;;;;3.97;2.75;;;;;;;24.04;43.62;96483.47;10353956;28;96735;-70
2022/06/18 08:26:06;;;;;;;4.30;3.17;;;;;;;24.11;43.36;96471.69;10359215;28;96877;-70
2022/06/18 08:31:10;;;;;;;;;;;;;;;24.30;43.42;96466.28;10355276;28;96986;-70
2022/06/18 08:36:17;;;;;;;6.25;3.53;;;;;;;24.48;43.55;96458.16;10351918;28;97056;-69
2022/06/18 08:41:35;;;;;;;4.82;3.50;;;;;;;24.63;43.67;96459.59;10349655;28;99137;-70
2022/06/18 08:46:48;;;;;;;6.45;3.50;;;;;;;24.81;43.13;96456.00;10349558;28;97567;-70
2022/06/18 08:52:09;;;;;;;5.77;3.07;;;;;;;24.90;43.05;96454.59;10352394;28;97099;-70
2022/06/18 08:57:18;;;;;;;5.25;3.35;;;;;;;25.07;42.99;96460.06;10345003;28;98779;-69
2022/06/18 09:02:27;;;;;;;6.65;3.53;;;;;;;25.24;42.62;96449.47;10346288;28;97922;-69
2022/06/18 09:08:16;;;;;;;4.55;3.75;;;;;;;25.44;42.67;96447.22;10357835;28;97018;-69
2022/06/18 09:13:23;;;;;;;4.90;3.10;;;;;;;25.60;42.29;96443.00;10357788;28;96822;-70
2022/06/18 09:18:30;;;;;;;3.35;3.00;;;;;;;25.75;41.97;96438.97;10360253;28;98024;-69
2022/06/18 09:23:52;;;;;;;5.53;3.10;;;;;;;25.85;41.87;96431.13;10353664;28;96758;-69
2022/06/18 09:29:02;;;;;;;3.60;2.97;;;;;;;25.97;41.46;96426.53;10346058;28;97705;-69
2022/06/18 09:34:10;;;;;;;3.67;3.35;;;;;;;26.14;41.64;96420.41;10356554;28;98298;-69
2022/06/18 09:39:19;;;;;;;3.50;3.20;;;;;;;26.25;40.38;96416.84;10346495;28;96932;-70
2022/06/18 09:44:26;;;;;;;3.63;3.22;;;;;;;26.31;40.50;96418.56;10373871;28;96943;-69
2022/06/18 09:49:31;;;;;;;3.95;3.20;;;;;;;26.44;40.42;96416.63;10370296;28;100881;-69
2022/06/18 09:54:38;;;;;;;4.90;3.13;;;;;;;26.52;40.45;96416.22;10351918;28;97443;-69
2022/06/18 09:59:44;;;;;;;5.53;3.65;;;;;;;26.65;39.93;96409.69;10355655;28;96838;-69
2022/06/18 10:10:15;;;;;;;8.38;3.30;;;;;;;26.86;39.85;96400.88;10340022;28;96930;-70
2022/06/18 10:15:19;;;;;;;6.40;4.20;;;;;;;27.02;39.71;96388.53;10344871;28;96731;-69
2022/06/18 10:20:32;;;;;;;6.90;3.30;;;;;;;27.17;39.01;96390.56;10345503;28;98639;-70
2022/06/18 10:25:43;;;;;;;3.83;3.17;;;;;;;27.39;39.03;96377.16;10362704;28;97663;-70
2022/06/18 10:30:54;;;;;;;5.97;3.30;;;;;;;27.58;38.25;96379.50;10358518;28;99297;-71
2022/06/18 10:36:08;;;;;;;4.45;3.10;;;;;;;27.68;37.92;96366.19;10357257;28;97442;-70
2022/06/18 10:41:18;;;;;;;4.10;3.13;;;;;;;27.67;38.00;96362.72;10356279;28;96920;-70
2022/06/18 10:46:23;;;;;;;5.03;3.42;;;;;;;27.85;38.16;96353.47;10356933;28;98451;-70
2022/06/18 10:51:28;;;;;;;4.15;2.75;;;;;;;28.10;37.66;96359.31;10342625;28;96939;-73
2022/06/18 10:56:45;;;;;;;4.38;2.92;;;;;;;28.34;37.41;96355.25;10346316;28;97170;-76
2022/06/18 11:01:47;;;;;;;5.45;3.20;;;;;;;28.49;36.91;96351.84;10345212;28;96872;-77
2022/06/18 11:06:57;;;;;;;4.68;3.10;;;;;;;28.81;36.02;96342.88;10352850;28;97145;-77
2022/06/18 11:12:05;;;;;;;7.20;2.72;;;;;;;28.96;35.72;96332.22;10348360;28;98346;-77
2022/06/18 11:17:19;;;;;;;8.38;5.28;;;;;;;29.18;35.15;96320.47;10343507;28;97179;-77
2022/06/18 11:22:25;;;;;;;4.10;2.83;;;;;;;29.17;35.17;96308.91;10357742;28;96987;-73
2022/06/18 11:27:33;;;;;;;6.32;4.05;;;;;;;29.46;34.56;96304.94;10356198;28;97160;-76
2022/06/18 11:32:42;;;;;;;6.05;3.20;;;;;;;29.66;33.85;96296.91;10361428;28;96729;-77
2022/06/18 11:37:57;;;;;;;7.25;2.95;;;;;;;29.78;32.62;96290.44;10354818;28;96918;-78
2022/06/18 11:43:07;;;;;;;5.78;2.92;;;;;;;29.72;33.02;96278.88;10345985;28;97083;-77
2022/06/18 11:48:23;;;;;;;5.78;3.28;;;;;;;29.96;32.98;96276.44;10345512;28;97106;-77
2022/06/18 11:53:32;;;;;;;8.02;3.88;;;;;;;30.26;32.95;96275.63;10340274;28;97157;-76
2022/06/18 11:58:44;;;;;;;42.65;27.35;;;;;;;30.26;31.92;96264.84;10350322;28;97527;-76
2022/06/18 12:03:51;;;;;;;195.95;135.15;;;;;;;30.41;31.94;96255.91;10353102;28;97887;-76
2022/06/18 12:08:54;;;;;;;39.95;25.75;;;;;;;30.67;31.64;96247.75;10347550;28;96815;-76
2022/06/18 12:14:06;;;;;;;30.77;18.35;;;;;;;30.79;31.26;96233.94;10352837;28;96944;-76
2022/06/18 12:19:17;;;;;;;7.10;3.67;;;;;;;30.90;31.31;96223.94;10352536;28;97180;-78
2022/06/18 12:24:38;;;;;;;7.57;2.95;;;;;;;30.93;30.88;96216.09;10346778;28;98693;-79
2022/06/18 12:29:58;;;;;;;6.15;3.03;;;;;;;31.05;30.68;96207.66;10345686;28;97363;-78
2022/06/18 12:35:11;;;;;;;6.05;2.75;;;;;;;31.17;30.88;96208.13;10361601;28;96811;-79
2022/06/18 12:40:25;;;;;;;6.22;2.60;;;;;;;31.37;30.52;96192.88;10368146;28;97346;-79
2022/06/18 12:45:43;;;;;;;7.85;2.85;;;;;;;31.36;30.89;96180.47;10357697;28;97769;-79
2022/06/18 12:50:57;;;;;;;6.38;2.92;;;;;;;31.33;30.33;96179.13;10369399;28;97685;-70
2022/06/18 12:56:05;;;;;;;11.85;3.05;;;;;;;31.38;30.23;96165.63;10365557;28;99029;-70
2022/06/18 13:01:16;;;;;;;7.35;2.67;;;;;;;31.58;30.14;96161.91;10358123;28;97812;-70
2022/06/18 13:06:30;;;;;;;6.70;2.83;;;;;;;31.60;29.85;96146.22;10346345;28;96679;-71
2022/06/18 13:11:46;;;;;;;6.00;2.67;;;;;;;31.64;29.91;96143.81;10350494;28;96981;-70
2022/06/18 13:16:54;;;;;;;7.13;3.08;;;;;;;32.38;29.66;96142.72;10351790;28;98165;-71
2022/06/18 13:22:01;;;;;;;8.17;2.70;;;;;;;32.70;29.15;96118.53;10370105;28;97814;-70
2022/06/18 13:32:43;;;;;;;5.30;2.90;;;;;;;32.70;28.90;96096.06;10348122;28;97124;-71
2022/06/18 13:37:54;;;;;;;7.55;3.20;;;;;;;32.81;29.16;96092.13;10344293;28;97055;-71
2022/06/18 13:43:08;;;;;;;7.47;2.95;;;;;;;33.33;28.32;96084.00;10355110;28;96936;-70
2022/06/18 13:48:37;;;;;;;6.03;3.22;;;;;;;33.23;28.44;96076.06;10349330;28;96998;-71
2022/06/18 13:53:42;;;;;;;5.15;3.03;;;;;;;33.05;28.54;96059.56;10348300;28;96676;-71
2022/06/18 13:58:50;;;;;;;10.57;3.28;;;;;;;33.34;28.38;96058.53;10359825;28;96914;-70
2022/06/18 14:03:59;;;;;;;10.40;3.33;;;;;;;34.25;27.73;96050.88;10347365;28;96968;-70
2022/06/18 14:09:05;;;;;;;6.38;2.80;;;;;;;35.19;26.72;96043.81;10356514;28;96779;-70
2022/06/18 14:14:10;;;;;;;5.30;3.10;;;;;;;35.88;26.18;96034.38;10351406;28;96898;-71
2022/06/18 14:19:27;;;;;;;6.70;2.95;;;;;;;36.61;25.57;96039.31;10349855;27;96967;-71
2022/06/18 14:24:38;;;;;;;8.65;3.35;;;;;;;37.27;24.39;96024.69;10359180;28;97069;-71
2022/06/18 14:29:43;;;;;;;4.72;2.50;;;;;;;38.29;24.05;96021.00;10356825;28;97046;-71
2022/06/18 14:34:56;;;;;;;6.25;3.08;;;;;;;39.52;23.32;96011.66;10344939;28;98653;-70
2022/06/18 14:40:00;;;;;;;7.10;2.95;;;;;;;40.72;22.02;96004.81;10343056;28;97621;-71
2022/06/18 14:45:26;;;;;;;8.18;3.15;;;;;;;41.40;21.06;95994.88;10350300;28;96899;-72
2022/06/18 14:50:57;;;;;;;7.53;2.78;;;;;;;42.21;20.15;95985.38;10339261;28;98994;-71
2022/06/18 14:56:14;;;;;;;7.72;3.13;;;;;;;43.36;19.46;95986.84;10349475;28;97405;-69
2022/06/18 15:01:26;;;;;;;7.68;3.00;;;;;;;43.90;19.26;95977.50;10354946;28;98541;-69
2022/06/18 15:06:34;;;;;;;6.20;3.10;;;;;;;44.36;18.88;95965.56;10365378;28;96961;-70
2022/06/18 15:11:46;;;;;;;7.22;3.13;;;;;;;44.41;18.69;95962.50;10359101;28;96890;-70
2022/06/18 15:17:09;;;;;;;6.03;2.85;;;;;;;44.82;18.35;95948.81;10349878;28;97120;-70
2022/06/18 15:22:32;;;;;;;5.95;2.70;;;;;;;44.93;18.04;95938.66;10345519;28;101530;-69
2022/06/18 15:27:35;;;;;;;6.10;3.30;;;;;;;45.00;18.28;95933.22;10345325;28;98063;-70
2022/06/18 15:32:40;;;;;;;4.10;2.80;;;;;;;45.24;17.76;95925.59;10344784;28;96878;-70
2022/06/18 15:37:48;;;;;;;6.55;3.28;;;;;;;45.83;17.38;95922.06;10338380;28;97626;-70
2022/06/18 15:42:54;;;;;;;5.38;3.00;;;;;;;46.02;17.02;95910.75;10353455;28;101485;-70
2022/06/18 15:47:58;;;;;;;7.43;3.20;;;;;;;46.40;17.00;95914.09;10344363;28;96891;-70
2022/06/18 15:53:03;;;;;;;4.95;3.10;;;;;;;46.55;16.81;95894.78;10353521;28;97245;-70
2022/06/18 15:58:06;;;;;;;8.50;3.17;;;;;;;46.59;16.38;95901.09;10364071;28;97250;-70
2022/06/18 16:03:11;;;;;;;4.72;2.78;;;;;;;46.65;16.56;95899.53;10359561;28;96935;-70
2022/06/18 16:13:47;;;;;;;5.80;3.28;;;;;;;47.25;16.02;95891.72;10433650;27;98290;-71
2022/06/18 16:18:59;;;;;;;6.55;3.53;;;;;;;46.95;16.75;95884.59;10391043;28;97608;-70
2022/06/18 16:24:05;;;;;;;6.30;3.05;;;;;;;46.00;17.03;95884.72;10395785;27;97361;-70
2022/06/18 16:29:15;;;;;;;5.72;2.88;;;;;;;45.94;17.36;95878.78;10390863;27;98498;-71
2022/06/18 16:34:22;;;;;;;9.63;3.40;;;;;;;46.23;17.01;95878.91;10396510;27;98404;-71
2022/06/18 16:39:41;;;;;;;4.13;3.00;;;;;;;46.54;17.01;95871.09;10393811;27;98420;-70
2022/06/18 16:44:45;;;;;;;4.72;3.40;;;;;;;46.18;17.37;95865.47;10390545;27;96774;-70
2022/06/18 16:49:57;;;;;;;6.97;2.95;;;;;;;46.07;17.34;95866.22;10405483;28;97909;-72
2022/06/18 16:55:01;;;;;;;10.60;2.95;;;;;;;46.08;16.64;95867.78;10385362;27;98565;-71
2022/06/18 17:00:15;;;;;;;10.15;3.63;;;;;;;46.20;16.75;95869.41;10405804;27;96778;-72
2022/06/18 17:05:18;;;;;;;9.13;3.33;;;;;;;45.94;16.72;95878.78;10396956;28;97435;-71
2022/06/18 17:10:25;;;;;;;8.25;3.00;;;;;;;45.87;16.54;95881.47;10396454;27;97302;-71
2022/06/18 17:15:29;;;;;;;10.63;3.42;;;;;;;45.80;16.52;95885.00;10396174;27;98535;-71
2022/06/18 17:20:33;;;;;;;8.07;3.08;;;;;;;45.67;17.13;95887.28;10402692;27;99228;-71
2022/06/18 17:31:12;;;;;;;9.65;2.97;;;;;;;44.54;17.19;95872.13;10361236;28;97132;-71
2022/06/18 17:36:20;;;;;;;7.82;3.30;;;;;;;44.17;18.42;95876.44;10361445;28;98329;-71
2022/06/18 17:41:23;;;;;;;9.10;3.33;;;;;;;44.07;18.22;95879.84;10370550;28;96821;-71
2022/06/18 17:46:27;;;;;;;10.95;3.80;;;;;;;43.88;18.84;95881.56;10367296;28;98870;-71
2022/06/18 17:51:31;;;;;;;10.38;3.50;;;;;;;43.76;18.00;95884.56;10362975;28;97108;-72
2022/06/18 17:56:35;;;;;;;8.63;3.40;;;;;;;43.42;19.29;95870.69;10367897;28;97100;-71
2022/06/18 18:01:44;;;;;;;7.90;3.35;;;;;;;43.03;19.63;95862.63;10371154;28;97218;-71
2022/06/18 18:06:46;;;;;;;7.38;3.17;;;;;;;42.41;20.15;95868.19;10380242;28;96936;-71
2022/06/18 18:11:51;;;;;;;7.90;2.83;;;;;;;41.87;21.40;95872.59;10371030;28;98723;-72
2022/06/18 18:16:57;;;;;;;12.77;3.60;;;;;;;40.59;22.16;95865.59;10369558;28;98632;-71
2022/06/18 18:22:01;;;;;;;8.90;3.10;;;;;;;39.21;24.08;95873.66;10367191;28;98389;-72
2022/06/18 18:27:08;;;;;;;10.38;3.40;;;;;;;38.19;25.46;95849.56;10366449;28;98801;-73
2022/06/18 18:32:21;;;;;;;8.13;3.50;;;;;;;37.34;27.10;95848.72;10354100;28;96967;-72
2022/06/18 18:37:25;;;;;;;7.00;3.35;;;;;;;36.39;27.77;95850.63;10358488;28;97337;-72
2022/06/18 18:42:28;;;;;;;6.57;4.03;;;;;;;35.98;28.00;95851.16;10388587;28;96921;-72
2022/06/18 18:47:32;;;;;;;6.82;3.72;;;;;;;35.53;29.98;95854.97;10367697;28;96960;-71
2022/06/18 18:52:35;;;;;;;9.68;4.43;;;;;;;34.95;31.02;95846.78;10359371;28;96957;-72
2022/06/18 18:57:38;;;;;;;7.82;4.55;;;;;;;34.31;32.64;95843.56;10378617;28;96865;-72
2022/06/18 19:02:45;;;;;;;9.85;5.55;;;;;;;33.91;32.94;95830.69;10360730;28;96737;-72
2022/06/18 19:07:49;;;;;;;6.68;4.82;;;;;;;33.50;33.84;95834.31;10349817;28;96892;-71
2022/06/18 19:13:05;;;;;;;7.72;4.80;;;;;;;33.21;34.44;95834.66;10369894;28;97028;-71
2022/06/18 19:18:12;;;;;;;8.57;5.88;;;;;;;32.72;35.86;95832.34;10364062;28;100581;-71
2022/06/18 19:23:16;;;;;;;8.98;5.97;;;;;;;32.32;35.49;95837.34;10378319;28;97080;-71
2022/06/18 19:28:24;;;;;;;11.10;6.13;;;;;;;31.97;35.63;95836.84;10378881;28;97112;-71
2022/06/18 19:33:29;;;;;;;7.85;5.90;;;;;;;31.84;35.04;95826.75;10368730;28;97875;-71
2022/06/18 19:38:34;;;;;;;8.23;5.80;;;;;;;31.69;35.45;95840.50;10372774;28;97758;-71
2022/06/18 19:43:37;;;;;;;7.25;5.15;;;;;;;31.55;34.53;95835.00;10377323;28;96743;-72
2022/06/18 19:48:45;;;;;;;8.20;5.93;;;;;;;31.29;35.35;95831.84;10378738;28;96908;-71
2022/06/18 19:53:54;;;;;;;9.15;5.95;;;;;;;30.94;36.51;95829.28;10377630;28;97014;-71
2022/06/18 19:58:57;;;;;;;7.93;6.00;;;;;;;30.71;36.21;95822.78;10376581;28;97051;-71
2022/06/18 20:04:01;;;;;;;9.88;5.20;;;;;;;30.61;36.87;95828.28;10375699;28;96948;-71
2022/06/18 20:09:04;;;;;;;7.38;5.60;;;;;;;30.54;37.13;95823.22;10376014;28;96863;-71
2022/06/18 20:14:09;;;;;;;7.72;6.40;;;;;;;30.38;37.94;95827.97;10378280;28;96952;-71
2022/06/18 20:19:14;;;;;;;9.20;6.90;;;;;;;30.18;38.22;95828.16;10365489;28;97102;-71
2022/06/18 20:24:16;;;;;;;8.75;7.47;;;;;;;29.99;39.47;95826.16;10361435;28;98632;-71
2022/06/18 20:29:21;;;;;;;8.38;7.28;;;;;;;29.83;39.91;95827.31;10373630;28;96955;-71
2022/06/18 20:34:25;;;;;;;7.32;6.40;;;;;;;29.72;38.66;95827.41;10358433;28;96901;-71
2022/06/18 20:39:28;;;;;;;8.27;6.18;;;;;;;29.62;38.53;95830.16;10359388;28;99908;-71
2022/06/18 20:44:34;;;;;;;8.77;6.28;;;;;;;29.68;37.37;95820.97;10359966;28;96950;-71
2022/06/18 20:49:38;;;;;;;11.75;7.45;;;;;;;29.63;37.62;95821.00;10349492;28;96707;-71
2022/06/18 21:00:11;;;;;;;8.75;6.38;;;;;;;29.43;37.13;95810.34;10325240;28;98376;-71
2022/06/18 21:05:19;;;;;;;9.32;6.60;;;;;;;29.28;37.37;95813.91;10336295;28;98629;-71
2022/06/18 21:10:22;;;;;;;8.48;5.78;;;;;;;28.98;37.79;95803.06;10337099;28;97064;-71
2022/06/18 21:15:25;;;;;;;11.77;6.50;;;;;;;28.60;38.82;95805.31;10302123;28;97263;-71
2022/06/18 21:20:30;;;;;;;11.00;7.00;;;;;;;28.35;39.97;95808.03;10304063;28;97425;-71
2022/06/18 21:25:38;;;;;;;9.90;7.05;;;;;;;27.74;40.85;95804.28;10301782;28;96797;-71
2022/06/18 21:30:43;;;;;;;9.60;6.03;;;;;;;27.49;40.90;95811.19;10300927;28;96944;-71
2022/06/18 21:41:23;;;;;;;11.02;6.60;;;;;;;27.18;41.70;95806.81;10230115;28;97664;-72
2022/06/18 21:46:26;;;;;;;8.18;6.43;;;;;;;27.06;42.24;95815.13;10238404;28;98360;-71
2022/06/18 21:51:30;;;;;;;6.63;5.93;;;;;;;26.84;42.94;95815.25;10252864;28;100310;-70
2022/06/18 21:56:34;;;;;;;9.93;6.20;;;;;;;26.73;43.36;95817.88;10239483;28;98867;-71
2022/06/18 22:01:37;;;;;;;9.77;6.78;;;;;;;26.42;44.65;95818.78;10239756;28;98146;-71
2022/06/18 22:06:42;;;;;;;8.80;6.47;;;;;;;26.08;45.06;95811.03;10247918;28;97339;-70
2022/06/18 22:17:11;;;;;;;7.18;6.47;;;;;;;25.88;45.58;95804.47;10322718;28;97324;-70
2022/06/18 22:17:13;;;;;;;9.93;6.88;;;;;;;25.78;45.58;95817.75;10362433;28;98471;-70
2022/06/18 22:22:18;;;;;;;10.25;6.45;;;;;;;25.79;45.62;95808.69;10362675;28;99288;-70
2022/06/18 22:27:25;;;;;;;9.88;6.30;;;;;;;25.92;45.72;95807.44;10372637;28;98180;-71
2022/06/18 22:32:28;;;;;;;10.73;6.60;;;;;;;25.97;45.59;95800.25;10371554;28;97448;-71
2022/06/18 22:37:33;;;;;;;9.37;6.50;;;;;;;25.90;45.92;95806.88;10376153;28;97313;-71
2022/06/18 22:42:36;;;;;;;12.23;6.57;;;;;;;25.84;45.80;95803.34;10368463;28;97018;-71
2022/06/18 22:47:39;;;;;;;9.70;6.30;;;;;;;25.75;46.23;95811.03;10366281;28;97066;-71
2022/06/18 22:52:47;;;;;;;9.77;6.30;;;;;;;25.59;46.95;95815.44;10349197;28;97783;-71
2022/06/18 22:57:50;;;;;;;8.93;6.47;;;;;;;25.37;47.57;95815.47;10368157;28;98525;-70
2022/06/18 23:02:53;;;;;;;15.98;6.78;;;;;;;25.40;47.29;95811.47;10361374;28;97087;-70
2022/06/18 23:08:02;;;;;;;9.43;6.55;;;;;;;25.41;47.31;95799.75;10361703;28;97380;-70
2022/06/18 23:13:06;;;;;;;9.88;5.72;;;;;;;25.43;47.26;95801.09;10370725;28;97992;-70
2022/06/18 23:18:14;;;;;;;9.57;6.53;;;;;;;25.41;47.15;95797.06;10376376;28;97984;-70
2022/06/18 23:23:18;;;;;;;7.80;6.43;;;;;;;25.39;47.66;95800.00;10375726;28;97803;-68
2022/06/18 23:28:21;;;;;;;9.90;6.45;;;;;;;25.32;47.47;95795.88;10374121;28;97977;-69
2022/06/18 23:33:24;;;;;;;8.60;6.23;;;;;;;25.35;47.44;95803.41;10374207;28;97859;-69
2022/06/18 23:38:28;;;;;;;7.25;5.88;;;;;;;25.36;47.23;95789.00;10369882;28;97214;-70
2022/06/18 23:43:33;;;;;;;7.65;5.75;;;;;;;25.42;46.71;95787.97;10369924;28;97932;-69
2022/06/18 23:48:37;;;;;;;9.38;6.75;;;;;;;25.48;47.00;95781.63;10370724;28;97886;-70
2022/06/18 23:53:41;;;;;;;9.23;7.25;;;;;;;25.45;46.89;95784.78;10354771;28;97946;-67
2022/06/18 23:58:44;;;;;;;8.50;6.03;;;;;;;25.41;47.12;95794.38;10372729;28;98495;-70
